Windber, Pennsylvania
Current Conditions -  °F | °C
As of 9:54 PM on Friday 24 Oct 2014 (Local Time) from KJST Reporting Station
Clear Clear  
Wind Chill: 43°   Ceiling: Unl
Heat Index: 48°   Visibility: 10mi
Dew Point: 35°   Wind: 10mph
Humidity: 61%   Direction: 270°W
Pressure: 30"   Gusts: NA
Location:  40.24°N, 78.84°W
Report Text: KJST 250154Z AUTO 27009KT 10SM CLR 09/02 A3000 RMK AO2 SLP168 T00890017
Loading
Personal Weather Stations






























Interactive Weather Map
Tropical Storm Tracking
New forecast layout! Learn more

10-Day Weather Forecast

Advertisements
Track Severe Weather on mobile